sensor_id;sensor_type;location;lat;lon;timestamp;pressure;altitude;pressure_sealevel;temperature;humidity
46015;BME280;36844;51.898;-0.874;2023-06-26T00:01:29;100450.34;;;23.30;
46015;BME280;36844;51.898;-0.874;2023-06-26T00:03:56;100454.91;;;23.33;
46015;BME280;36844;51.898;-0.874;2023-06-26T00:06:21;100466.53;;;23.33;
46015;BME280;36844;51.898;-0.874;2023-06-26T00:08:50;100447.91;;;23.19;
46015;BME280;36844;51.898;-0.874;2023-06-26T00:11:15;100467.84;;;23.29;
46015;BME280;36844;51.898;-0.874;2023-06-26T00:13:40;100470.25;;;23.27;
46015;BME280;36844;51.898;-0.874;2023-06-26T00:16:07;100472.84;;;23.30;
46015;BME280;36844;51.898;-0.874;2023-06-26T00:18:32;100475.22;;;23.28;
46015;BME280;36844;51.898;-0.874;2023-06-26T00:20:57;100469.38;;;23.30;
46015;BME280;36844;51.898;-0.874;2023-06-26T00:23:23;100464.47;;;23.25;
46015;BME280;36844;51.898;-0.874;2023-06-26T00:25:48;100462.28;;;23.20;
46015;BME280;36844;51.898;-0.874;2023-06-26T00:28:13;100460.44;;;23.17;
46015;BME280;36844;51.898;-0.874;2023-06-26T00:30:38;100474.69;;;23.21;
46015;BME280;36844;51.898;-0.874;2023-06-26T00:33:04;100467.50;;;23.14;
46015;BME280;36844;51.898;-0.874;2023-06-26T00:35:29;100477.41;;;23.21;
46015;BME280;36844;51.898;-0.874;2023-06-26T00:37:54;100487.06;;;23.22;
46015;BME280;36844;51.898;-0.874;2023-06-26T00:40:20;100493.72;;;23.21;
46015;BME280;36844;51.898;-0.874;2023-06-26T00:42:45;100491.41;;;23.19;
46015;BME280;36844;51.898;-0.874;2023-06-26T00:45:10;100478.16;;;23.09;
46015;BME280;36844;51.898;-0.874;2023-06-26T00:47:36;100481.88;;;23.15;
46015;BME280;36844;51.898;-0.874;2023-06-26T00:50:02;100493.81;;;23.17;
46015;BME280;36844;51.898;-0.874;2023-06-26T00:52:28;100486.84;;;23.16;
46015;BME280;36844;51.898;-0.874;2023-06-26T00:54:53;100483.13;;;23.10;
46015;BME280;36844;51.898;-0.874;2023-06-26T00:57:18;100490.03;;;23.15;
46015;BME280;36844;51.898;-0.874;2023-06-26T00:59:44;100485.84;;;23.10;
46015;BME280;36844;51.898;-0.874;2023-06-26T01:02:09;100483.69;;;23.05;
46015;BME280;36844;51.898;-0.874;2023-06-26T01:04:35;100501.72;;;23.12;
46015;BME280;36844;51.898;-0.874;2023-06-26T01:07:01;100492.06;;;23.11;
46015;BME280;36844;51.898;-0.874;2023-06-26T01:09:27;100492.91;;;23.08;
46015;BME280;36844;51.898;-0.874;2023-06-26T01:11:52;100498.78;;;23.06;
46015;BME280;36844;51.898;-0.874;2023-06-26T01:14:18;100493.56;;;22.99;
46015;BME280;36844;51.898;-0.874;2023-06-26T01:16:43;100493.47;;;23.03;
46015;BME280;36844;51.898;-0.874;2023-06-26T01:19:26;100508.91;;;23.06;
46015;BME280;36844;51.898;-0.874;2023-06-26T01:24:30;100498.66;;;22.97;
46015;BME280;36844;51.898;-0.874;2023-06-26T01:26:58;100499.41;;;22.98;
46015;BME280;36844;51.898;-0.874;2023-06-26T01:29:25;100512.91;;;23.01;
46015;BME280;36844;51.898;-0.874;2023-06-26T01:31:51;100507.91;;;23.00;
46015;BME280;36844;51.898;-0.874;2023-06-26T01:34:17;100506.38;;;22.99;
46015;BME280;36844;51.898;-0.874;2023-06-26T01:36:44;100504.53;;;22.96;
46015;BME280;36844;51.898;-0.874;2023-06-26T01:39:10;100511.47;;;22.97;
46015;BME280;36844;51.898;-0.874;2023-06-26T01:41:35;100494.69;;;22.86;
46015;BME280;36844;51.898;-0.874;2023-06-26T01:44:11;100513.72;;;22.86;
46015;BME280;36844;51.898;-0.874;2023-06-26T01:46:44;100525.16;;;22.93;
46015;BME280;36844;51.898;-0.874;2023-06-26T01:55:05;100535.03;;;22.87;
46015;BME280;36844;51.898;-0.874;2023-06-26T01:57:34;100519.00;;;22.77;
46015;BME280;36844;51.898;-0.874;2023-06-26T02:00:01;100533.59;;;22.83;
46015;BME280;36844;51.898;-0.874;2023-06-26T02:02:28;100526.97;;;22.84;
46015;BME280;36844;51.898;-0.874;2023-06-26T02:04:54;100515.97;;;22.75;
46015;BME280;36844;51.898;-0.874;2023-06-26T02:07:20;100518.66;;;22.75;
46015;BME280;36844;51.898;-0.874;2023-06-26T02:09:45;100523.91;;;22.82;
46015;BME280;36844;51.898;-0.874;2023-06-26T02:12:10;100526.72;;;22.78;
46015;BME280;36844;51.898;-0.874;2023-06-26T02:14:36;100518.38;;;22.73;
46015;BME280;36844;51.898;-0.874;2023-06-26T02:17:01;100528.69;;;22.78;
46015;BME280;36844;51.898;-0.874;2023-06-26T02:19:26;100525.75;;;22.72;
46015;BME280;36844;51.898;-0.874;2023-06-26T02:21:53;100526.16;;;22.71;
46015;BME280;36844;51.898;-0.874;2023-06-26T02:24:18;100532.34;;;22.71;
46015;BME280;36844;51.898;-0.874;2023-06-26T02:26:43;100527.34;;;22.70;
46015;BME280;36844;51.898;-0.874;2023-06-26T02:29:09;100528.53;;;22.69;
46015;BME280;36844;51.898;-0.874;2023-06-26T02:31:34;100514.28;;;22.65;
46015;BME280;36844;51.898;-0.874;2023-06-26T02:34:00;100532.34;;;22.71;
46015;BME280;36844;51.898;-0.874;2023-06-26T02:36:25;100516.19;;;22.52;
46015;BME280;36844;51.898;-0.874;2023-06-26T02:38:50;100533.72;;;22.63;
46015;BME280;36844;51.898;-0.874;2023-06-26T02:41:15;100536.44;;;22.63;
46015;BME280;36844;51.898;-0.874;2023-06-26T02:43:41;100551.88;;;22.66;
46015;BME280;36844;51.898;-0.874;2023-06-26T02:46:06;100539.25;;;22.60;
46015;BME280;36844;51.898;-0.874;2023-06-26T02:48:31;100538.47;;;22.59;
46015;BME280;36844;51.898;-0.874;2023-06-26T02:50:57;100540.09;;;22.57;
46015;BME280;36844;51.898;-0.874;2023-06-26T02:53:22;100542.81;;;22.57;
46015;BME280;36844;51.898;-0.874;2023-06-26T02:55:47;100537.38;;;22.57;
46015;BME280;36844;51.898;-0.874;2023-06-26T02:58:13;100541.28;;;22.56;
46015;BME280;36844;51.898;-0.874;2023-06-26T03:00:38;100549.34;;;22.59;
46015;BME280;36844;51.898;-0.874;2023-06-26T03:03:07;100542.56;;;22.51;
46015;BME280;36844;51.898;-0.874;2023-06-26T03:05:32;100542.66;;;22.48;
46015;BME280;36844;51.898;-0.874;2023-06-26T03:07:58;100538.34;;;22.50;
46015;BME280;36844;51.898;-0.874;2023-06-26T03:10:23;100547.47;;;22.56;
46015;BME280;36844;51.898;-0.874;2023-06-26T03:12:48;100547.56;;;22.53;
46015;BME280;36844;51.898;-0.874;2023-06-26T03:15:14;100549.25;;;22.47;
46015;BME280;36844;51.898;-0.874;2023-06-26T03:17:39;100547.78;;;22.46;
46015;BME280;36844;51.898;-0.874;2023-06-26T03:20:05;100555.72;;;22.53;
46015;BME280;36844;51.898;-0.874;2023-06-26T03:22:32;100563.13;;;22.52;
46015;BME280;36844;51.898;-0.874;2023-06-26T03:24:58;100548.53;;;22.46;
46015;BME280;36844;51.898;-0.874;2023-06-26T03:27:23;100557.00;;;22.48;
46015;BME280;36844;51.898;-0.874;2023-06-26T03:29:48;100553.28;;;22.42;
46015;BME280;36844;51.898;-0.874;2023-06-26T03:32:13;100549.34;;;22.43;
46015;BME280;36844;51.898;-0.874;2023-06-26T03:34:39;100553.97;;;22.46;
46015;BME280;36844;51.898;-0.874;2023-06-26T03:37:04;100538.34;;;22.34;
46015;BME280;36844;51.898;-0.874;2023-06-26T03:39:30;100555.91;;;22.46;
46015;BME280;36844;51.898;-0.874;2023-06-26T03:41:55;100551.47;;;22.36;
46015;BME280;36844;51.898;-0.874;2023-06-26T03:44:25;100560.41;;;22.36;
46015;BME280;36844;51.898;-0.874;2023-06-26T03:46:50;100566.59;;;22.37;
46015;BME280;36844;51.898;-0.874;2023-06-26T03:49:15;100568.63;;;22.33;
46015;BME280;36844;51.898;-0.874;2023-06-26T03:51:41;100579.66;;;22.42;
46015;BME280;36844;51.898;-0.874;2023-06-26T03:54:06;100565.31;;;22.25;
46015;BME280;36844;51.898;-0.874;2023-06-26T03:56:31;100577.53;;;22.33;
46015;BME280;36844;51.898;-0.874;2023-06-26T03:58:57;100579.56;;;22.29;
46015;BME280;36844;51.898;-0.874;2023-06-26T04:01:22;100583.06;;;22.30;
46015;BME280;36844;51.898;-0.874;2023-06-26T04:03:47;100594.22;;;22.32;
46015;BME280;36844;51.898;-0.874;2023-06-26T04:06:13;100609.69;;;22.35;
46015;BME280;36844;51.898;-0.874;2023-06-26T04:08:38;100602.91;;;22.27;
46015;BME280;36844;51.898;-0.874;2023-06-26T04:11:03;100604.75;;;22.30;
46015;BME280;36844;51.898;-0.874;2023-06-26T04:13:29;100605.63;;;22.27;
46015;BME280;36844;51.898;-0.874;2023-06-26T04:15:54;100610.88;;;22.34;
46015;BME280;36844;51.898;-0.874;2023-06-26T04:18:19;100614.75;;;22.33;
46015;BME280;36844;51.898;-0.874;2023-06-26T04:21:05;100613.69;;;22.30;
46015;BME280;36844;51.898;-0.874;2023-06-26T04:23:32;100606.78;;;22.26;
46015;BME280;36844;51.898;-0.874;2023-06-26T04:25:57;100618.34;;;22.30;
46015;BME280;36844;51.898;-0.874;2023-06-26T04:28:23;100608.84;;;22.22;
46015;BME280;36844;51.898;-0.874;2023-06-26T04:30:49;100605.78;;;22.20;
46015;BME280;36844;51.898;-0.874;2023-06-26T04:33:14;100613.06;;;22.23;
46015;BME280;36844;51.898;-0.874;2023-06-26T04:35:40;100603.88;;;22.17;
46015;BME280;36844;51.898;-0.874;2023-06-26T04:38:06;100620.34;;;22.26;
46015;BME280;36844;51.898;-0.874;2023-06-26T04:40:31;100612.41;;;22.19;
46015;BME280;36844;51.898;-0.874;2023-06-26T04:42:56;100608.13;;;22.18;
46015;BME280;36844;51.898;-0.874;2023-06-26T04:45:22;100623.50;;;22.24;
46015;BME280;36844;51.898;-0.874;2023-06-26T04:47:47;100626.63;;;22.23;
46015;BME280;36844;51.898;-0.874;2023-06-26T04:50:12;100637.47;;;22.23;
46015;BME280;36844;51.898;-0.874;2023-06-26T04:52:37;100621.63;;;22.21;
46015;BME280;36844;51.898;-0.874;2023-06-26T04:55:03;100624.41;;;22.18;
46015;BME280;36844;51.898;-0.874;2023-06-26T04:57:28;100625.28;;;22.15;
46015;BME280;36844;51.898;-0.874;2023-06-26T04:59:54;100635.63;;;22.20;
46015;BME280;36844;51.898;-0.874;2023-06-26T05:02:19;100637.56;;;22.19;
46015;BME280;36844;51.898;-0.874;2023-06-26T05:04:44;100621.84;;;22.11;
46015;BME280;36844;51.898;-0.874;2023-06-26T05:07:11;100647.69;;;22.19;
46015;BME280;36844;51.898;-0.874;2023-06-26T05:09:36;100630.69;;;22.15;
46015;BME280;36844;51.898;-0.874;2023-06-26T05:12:02;100630.00;;;22.11;
46015;BME280;36844;51.898;-0.874;2023-06-26T05:14:28;100630.31;;;22.13;
46015;BME280;36844;51.898;-0.874;2023-06-26T05:16:53;100645.44;;;22.14;
46015;BME280;36844;51.898;-0.874;2023-06-26T05:19:18;100638.47;;;22.13;
46015;BME280;36844;51.898;-0.874;2023-06-26T05:21:44;100644.72;;;22.09;
46015;BME280;36844;51.898;-0.874;2023-06-26T05:24:12;100650.09;;;22.13;
46015;BME280;36844;51.898;-0.874;2023-06-26T05:26:38;100660.53;;;22.15;
46015;BME280;36844;51.898;-0.874;2023-06-26T05:29:04;100669.38;;;22.19;
46015;BME280;36844;51.898;-0.874;2023-06-26T05:31:32;100663.34;;;22.11;
46015;BME280;36844;51.898;-0.874;2023-06-26T05:34:02;100681.81;;;22.16;
46015;BME280;36844;51.898;-0.874;2023-06-26T05:36:29;100676.31;;;22.20;
46015;BME280;36844;51.898;-0.874;2023-06-26T05:38:56;100681.09;;;22.16;
46015;BME280;36844;51.898;-0.874;2023-06-26T05:41:22;100675.97;;;22.18;
46015;BME280;36844;51.898;-0.874;2023-06-26T05:43:47;100693.81;;;22.19;
46015;BME280;36844;51.898;-0.874;2023-06-26T05:46:13;100682.56;;;22.17;
46015;BME280;36844;51.898;-0.874;2023-06-26T05:48:38;100683.34;;;22.17;
46015;BME280;36844;51.898;-0.874;2023-06-26T05:51:04;100682.56;;;22.17;
46015;BME280;36844;51.898;-0.874;2023-06-26T05:53:30;100671.53;;;22.08;
46015;BME280;36844;51.898;-0.874;2023-06-26T05:55:56;100687.94;;;22.20;
46015;BME280;36844;51.898;-0.874;2023-06-26T05:58:23;100688.69;;;22.21;
46015;BME280;36844;51.898;-0.874;2023-06-26T06:00:51;100674.97;;;22.12;
46015;BME280;36844;51.898;-0.874;2023-06-26T06:03:16;100680.69;;;22.14;
46015;BME280;36844;51.898;-0.874;2023-06-26T06:05:41;100685.75;;;22.15;
46015;BME280;36844;51.898;-0.874;2023-06-26T06:08:07;100701.84;;;22.22;
46015;BME280;36844;51.898;-0.874;2023-06-26T06:10:32;100708.03;;;22.23;
46015;BME280;36844;51.898;-0.874;2023-06-26T06:12:57;100693.44;;;22.17;
46015;BME280;36844;51.898;-0.874;2023-06-26T06:15:23;100712.69;;;22.22;
46015;BME280;36844;51.898;-0.874;2023-06-26T06:17:48;100688.63;;;22.04;
46015;BME280;36844;51.898;-0.874;2023-06-26T06:20:14;100689.28;;;22.12;
46015;BME280;36844;51.898;-0.874;2023-06-26T06:22:39;100696.13;;;22.17;
46015;BME280;36844;51.898;-0.874;2023-06-26T06:25:05;100698.03;;;22.20;
46015;BME280;36844;51.898;-0.874;2023-06-26T06:27:30;100716.44;;;22.28;
46015;BME280;36844;51.898;-0.874;2023-06-26T06:29:56;100705.81;;;22.18;
46015;BME280;36844;51.898;-0.874;2023-06-26T06:32:21;100729.63;;;22.30;
46015;BME280;36844;51.898;-0.874;2023-06-26T06:34:47;100724.25;;;22.26;
46015;BME280;36844;51.898;-0.874;2023-06-26T06:37:12;100727.28;;;22.28;
46015;BME280;36844;51.898;-0.874;2023-06-26T06:39:37;100728.56;;;22.24;
46015;BME280;36844;51.898;-0.874;2023-06-26T06:42:03;100737.34;;;22.31;
46015;BME280;36844;51.898;-0.874;2023-06-26T06:44:28;100729.41;;;22.21;
46015;BME280;36844;51.898;-0.874;2023-06-26T06:46:55;100746.22;;;22.32;
46015;BME280;36844;51.898;-0.874;2023-06-26T06:49:21;100744.28;;;22.32;
46015;BME280;36844;51.898;-0.874;2023-06-26T06:51:46;100731.28;;;22.24;
46015;BME280;36844;51.898;-0.874;2023-06-26T06:54:11;100735.53;;;22.25;
46015;BME280;36844;51.898;-0.874;2023-06-26T06:56:36;100768.69;;;22.32;
46015;BME280;36844;51.898;-0.874;2023-06-26T06:59:02;100747.56;;;22.24;
46015;BME280;36844;51.898;-0.874;2023-06-26T07:01:27;100757.59;;;22.27;
46015;BME280;36844;51.898;-0.874;2023-06-26T07:03:52;100755.59;;;22.31;
46015;BME280;36844;51.898;-0.874;2023-06-26T07:06:18;100758.75;;;22.26;
46015;BME280;36844;51.898;-0.874;2023-06-26T07:08:44;100744.53;;;22.22;
46015;BME280;36844;51.898;-0.874;2023-06-26T07:11:09;100751.41;;;22.26;
46015;BME280;36844;51.898;-0.874;2023-06-26T07:13:34;100762.19;;;22.30;
46015;BME280;36844;51.898;-0.874;2023-06-26T07:16:00;100766.34;;;22.34;
46015;BME280;36844;51.898;-0.874;2023-06-26T07:18:25;100761.47;;;22.26;
46015;BME280;36844;51.898;-0.874;2023-06-26T07:20:50;100780.69;;;22.35;
46015;BME280;36844;51.898;-0.874;2023-06-26T07:23:17;100766.06;;;22.29;
46015;BME280;36844;51.898;-0.874;2023-06-26T07:25:42;100761.91;;;22.24;
46015;BME280;36844;51.898;-0.874;2023-06-26T07:28:11;100764.25;;;22.22;
46015;BME280;36844;51.898;-0.874;2023-06-26T07:30:36;100756.34;;;22.12;
46015;BME280;36844;51.898;-0.874;2023-06-26T07:33:02;100775.59;;;22.17;
46015;BME280;36844;51.898;-0.874;2023-06-26T07:35:27;100763.78;;;22.08;
46015;BME280;36844;51.898;-0.874;2023-06-26T07:37:53;100771.41;;;22.13;
46015;BME280;36844;51.898;-0.874;2023-06-26T07:40:18;100771.66;;;22.02;
46015;BME280;36844;51.898;-0.874;2023-06-26T07:42:43;100796.69;;;22.09;
46015;BME280;36844;51.898;-0.874;2023-06-26T07:45:09;100792.94;;;22.03;
46015;BME280;36844;51.898;-0.874;2023-06-26T07:47:38;100789.38;;;22.06;
46015;BME280;36844;51.898;-0.874;2023-06-26T07:50:03;100787.16;;;22.01;
46015;BME280;36844;51.898;-0.874;2023-06-26T07:52:29;100783.59;;;22.04;
46015;BME280;36844;51.898;-0.874;2023-06-26T07:54:55;100771.38;;;21.96;
46015;BME280;36844;51.898;-0.874;2023-06-26T07:57:21;100775.13;;;22.02;
46015;BME280;36844;51.898;-0.874;2023-06-26T07:59:46;100759.91;;;21.89;
46015;BME280;36844;51.898;-0.874;2023-06-26T08:02:11;100781.41;;;21.99;
46015;BME280;36844;51.898;-0.874;2023-06-26T08:04:37;100782.56;;;21.98;
46015;BME280;36844;51.898;-0.874;2023-06-26T08:07:02;100781.84;;;21.94;
46015;BME280;36844;51.898;-0.874;2023-06-26T08:09:30;100791.53;;;21.95;
46015;BME280;36844;51.898;-0.874;2023-06-26T08:11:56;100785.88;;;21.86;
46015;BME280;36844;51.898;-0.874;2023-06-26T08:14:22;100783.53;;;21.88;
46015;BME280;36844;51.898;-0.874;2023-06-26T08:16:47;100779.13;;;21.94;
46015;BME280;36844;51.898;-0.874;2023-06-26T08:19:13;100787.66;;;21.96;
46015;BME280;36844;51.898;-0.874;2023-06-26T08:21:46;100789.16;;;21.97;
46015;BME280;36844;51.898;-0.874;2023-06-26T08:24:11;100793.53;;;21.91;
46015;BME280;36844;51.898;-0.874;2023-06-26T08:26:38;100803.97;;;21.93;
46015;BME280;36844;51.898;-0.874;2023-06-26T08:29:03;100803.88;;;22.00;
46015;BME280;36844;51.898;-0.874;2023-06-26T08:31:35;100806.50;;;22.03;
46015;BME280;36844;51.898;-0.874;2023-06-26T08:34:02;100808.84;;;22.01;
46015;BME280;36844;51.898;-0.874;2023-06-26T08:36:28;100803.09;;;21.99;
46015;BME280;36844;51.898;-0.874;2023-06-26T08:38:53;100792.31;;;21.96;
46015;BME280;36844;51.898;-0.874;2023-06-26T08:41:18;100800.72;;;22.01;
46015;BME280;36844;51.898;-0.874;2023-06-26T08:43:44;100811.56;;;22.01;
46015;BME280;36844;51.898;-0.874;2023-06-26T08:46:09;100822.72;;;22.07;
46015;BME280;36844;51.898;-0.874;2023-06-26T08:48:35;100800.84;;;21.94;
46015;BME280;36844;51.898;-0.874;2023-06-26T08:51:09;100806.97;;;21.98;
46015;BME280;36844;51.898;-0.874;2023-06-26T08:56:08;100814.03;;;21.96;
46015;BME280;36844;51.898;-0.874;2023-06-26T08:58:35;100818.72;;;21.92;
46015;BME280;36844;51.898;-0.874;2023-06-26T09:01:04;100821.50;;;21.88;
46015;BME280;36844;51.898;-0.874;2023-06-26T09:03:30;100819.97;;;21.87;
46015;BME280;36844;51.898;-0.874;2023-06-26T09:05:56;100820.38;;;21.86;
46015;BME280;36844;51.898;-0.874;2023-06-26T09:08:21;100815.06;;;21.79;
46015;BME280;36844;51.898;-0.874;2023-06-26T09:10:47;100814.28;;;21.78;
46015;BME280;36844;51.898;-0.874;2023-06-26T09:13:12;100839.81;;;21.84;
46015;BME280;36844;51.898;-0.874;2023-06-26T09:15:41;100834.78;;;21.83;
46015;BME280;36844;51.898;-0.874;2023-06-26T09:18:07;100819.44;;;21.73;
46015;BME280;36844;51.898;-0.874;2023-06-26T09:20:33;100822.94;;;21.73;
46015;BME280;36844;51.898;-0.874;2023-06-26T09:22:58;100840.63;;;21.81;
46015;BME280;36844;51.898;-0.874;2023-06-26T09:25:24;100842.97;;;21.79;
46015;BME280;36844;51.898;-0.874;2023-06-26T09:27:50;100840.63;;;21.81;
46015;BME280;36844;51.898;-0.874;2023-06-26T09:30:18;100844.06;;;21.82;
46015;BME280;36844;51.898;-0.874;2023-06-26T09:32:44;100833.72;;;21.77;
46015;BME280;36844;51.898;-0.874;2023-06-26T09:35:10;100854.53;;;21.83;
46015;BME280;36844;51.898;-0.874;2023-06-26T09:37:35;100836.00;;;21.78;
46015;BME280;36844;51.898;-0.874;2023-06-26T09:40:01;100851.81;;;21.83;
46015;BME280;36844;51.898;-0.874;2023-06-26T09:42:26;100825.69;;;21.70;
46015;BME280;36844;51.898;-0.874;2023-06-26T09:44:52;100836.00;;;21.78;
46015;BME280;36844;51.898;-0.874;2023-06-26T09:47:21;100832.19;;;21.76;
46015;BME280;36844;51.898;-0.874;2023-06-26T09:49:46;100834.50;;;21.77;
46015;BME280;36844;51.898;-0.874;2023-06-26T09:52:16;100829.88;;;21.74;
46015;BME280;36844;51.898;-0.874;2023-06-26T09:54:42;100836.78;;;21.79;
46015;BME280;36844;51.898;-0.874;2023-06-26T09:57:15;100844.50;;;21.80;
46015;BME280;36844;51.898;-0.874;2023-06-26T09:59:42;100833.00;;;21.73;
46015;BME280;36844;51.898;-0.874;2023-06-26T10:02:08;100844.06;;;21.82;
46015;BME280;36844;51.898;-0.874;2023-06-26T10:04:34;100834.78;;;21.83;
46015;BME280;36844;51.898;-0.874;2023-06-26T10:07:01;100818.22;;;21.77;
46015;BME280;36844;51.898;-0.874;2023-06-26T10:09:29;100831.34;;;21.79;
46015;BME280;36844;51.898;-0.874;2023-06-26T10:12:02;100847.50;;;21.86;
46015;BME280;36844;51.898;-0.874;2023-06-26T10:14:35;100861.06;;;21.86;
46015;BME280;36844;51.898;-0.874;2023-06-26T10:17:04;100844.06;;;21.82;
46015;BME280;36844;51.898;-0.874;2023-06-26T10:19:31;100856.47;;;21.83;
46015;BME280;36844;51.898;-0.874;2023-06-26T10:21:58;100869.97;;;21.86;
46015;BME280;36844;51.898;-0.874;2023-06-26T10:24:24;100850.06;;;21.73;
46015;BME280;36844;51.898;-0.874;2023-06-26T10:27:16;100873.84;;;21.85;
46015;BME280;36844;51.898;-0.874;2023-06-26T10:29:44;100857.25;;;21.83;
46015;BME280;36844;51.898;-0.874;2023-06-26T10:32:12;100860.72;;;21.84;
46015;BME280;36844;51.898;-0.874;2023-06-26T10:34:38;100853.03;;;21.79;
46015;BME280;36844;51.898;-0.874;2023-06-26T10:37:04;100838.91;;;21.68;
46015;BME280;36844;51.898;-0.874;2023-06-26T10:42:17;100856.09;;;21.84;
46015;BME280;36844;51.898;-0.874;2023-06-26T10:44:45;100867.63;;;21.88;
46015;BME280;36844;51.898;-0.874;2023-06-26T10:47:12;100860.78;;;21.80;
46015;BME280;36844;51.898;-0.874;2023-06-26T10:49:53;100869.50;;;21.91;
46015;BME280;36844;51.898;-0.874;2023-06-26T10:52:18;100857.63;;;21.82;
46015;BME280;36844;51.898;-0.874;2023-06-26T10:54:44;100867.97;;;21.90;
46015;BME280;36844;51.898;-0.874;2023-06-26T10:57:10;100858.03;;;21.84;
46015;BME280;36844;51.898;-0.874;2023-06-26T10:59:39;100833.78;;;21.73;
46015;BME280;36844;51.898;-0.874;2023-06-26T11:02:05;100875.69;;;21.92;
46015;BME280;36844;51.898;-0.874;2023-06-26T11:04:47;100866.44;;;21.89;
46015;BME280;36844;51.898;-0.874;2023-06-26T11:07:25;100880.63;;;21.97;
46015;BME280;36844;51.898;-0.874;2023-06-26T11:10:23;100875.34;;;21.90;
46015;BME280;36844;51.898;-0.874;2023-06-26T11:12:53;100877.69;;;21.88;
46015;BME280;36844;51.898;-0.874;2023-06-26T11:15:19;100880.28;;;21.95;
46015;BME280;36844;51.898;-0.874;2023-06-26T11:17:45;100882.63;;;21.96;
46015;BME280;36844;51.898;-0.874;2023-06-26T11:20:12;100879.50;;;21.94;
46015;BME280;36844;51.898;-0.874;2023-06-26T11:22:39;100867.97;;;21.90;
46015;BME280;36844;51.898;-0.874;2023-06-26T11:25:05;100879.19;;;21.92;
46015;BME280;36844;51.898;-0.874;2023-06-26T11:27:41;100880.56;;;22.00;
46015;BME280;36844;51.898;-0.874;2023-06-26T11:30:07;100882.16;;;21.98;
46015;BME280;36844;51.898;-0.874;2023-06-26T11:32:32;100874.09;;;21.94;
46015;BME280;36844;51.898;-0.874;2023-06-26T11:34:59;100879.84;;;22.00;
46015;BME280;36844;51.898;-0.874;2023-06-26T11:37:24;100871.44;;;21.91;
46015;BME280;36844;51.898;-0.874;2023-06-26T11:39:50;100890.75;;;21.96;
46015;BME280;36844;51.898;-0.874;2023-06-26T11:42:17;100886.88;;;21.94;
46015;BME280;36844;51.898;-0.874;2023-06-26T11:44:43;100894.50;;;22.02;
46015;BME280;36844;51.898;-0.874;2023-06-26T11:47:16;100885.31;;;21.96;
46015;BME280;36844;51.898;-0.874;2023-06-26T11:49:43;100896.88;;;21.97;
46015;BME280;36844;51.898;-0.874;2023-06-26T11:52:08;100914.66;;;22.01;
46015;BME280;36844;51.898;-0.874;2023-06-26T11:54:33;100910.00;;;22.02;
46015;BME280;36844;51.898;-0.874;2023-06-26T11:56:59;100914.28;;;22.03;
46015;BME280;36844;51.898;-0.874;2023-06-26T11:59:33;100916.22;;;22.02;
46015;BME280;36844;51.898;-0.874;2023-06-26T12:01:59;100913.03;;;22.08;
46015;BME280;36844;51.898;-0.874;2023-06-26T12:04:25;100907.31;;;22.02;
46015;BME280;36844;51.898;-0.874;2023-06-26T12:06:52;100919.97;;;22.08;
46015;BME280;36844;51.898;-0.874;2023-06-26T12:09:22;100906.13;;;22.03;
46015;BME280;36844;51.898;-0.874;2023-06-26T12:11:48;100908.31;;;22.12;
46015;BME280;36844;51.898;-0.874;2023-06-26T12:14:17;100909.81;;;22.13;
46015;BME280;36844;51.898;-0.874;2023-06-26T12:16:44;100889.78;;;22.06;
46015;BME280;36844;51.898;-0.874;2023-06-26T12:19:09;100907.47;;;22.15;
46015;BME280;36844;51.898;-0.874;2023-06-26T12:24:08;100911.66;;;22.19;
46015;BME280;36844;51.898;-0.874;2023-06-26T12:26:34;100905.03;;;22.20;
46015;BME280;36844;51.898;-0.874;2023-06-26T12:29:07;100917.44;;;22.21;
46015;BME280;36844;51.898;-0.874;2023-06-26T12:31:33;100891.97;;;22.15;
46015;BME280;36844;51.898;-0.874;2023-06-26T12:33:59;100886.53;;;22.15;
46015;BME280;36844;51.898;-0.874;2023-06-26T12:36:25;100901.84;;;22.25;
46015;BME280;36844;51.898;-0.874;2023-06-26T12:38:53;100896.50;;;22.22;
46015;BME280;36844;51.898;-0.874;2023-06-26T12:41:18;100897.19;;;22.26;
46015;BME280;36844;51.898;-0.874;2023-06-26T12:43:45;100889.88;;;22.23;
46015;BME280;36844;51.898;-0.874;2023-06-26T12:46:11;100891.75;;;22.26;
46015;BME280;36844;51.898;-0.874;2023-06-26T12:48:40;100884.88;;;22.21;
46015;BME280;36844;51.898;-0.874;2023-06-26T12:51:11;100914.13;;;22.33;
46015;BME280;36844;51.898;-0.874;2023-06-26T12:53:38;100914.91;;;22.34;
46015;BME280;36844;51.898;-0.874;2023-06-26T12:56:07;100897.91;;;22.30;
46015;BME280;36844;51.898;-0.874;2023-06-26T12:58:34;100900.19;;;22.31;
46015;BME280;36844;51.898;-0.874;2023-06-26T13:00:59;100887.03;;;22.30;
46015;BME280;36844;51.898;-0.874;2023-06-26T13:03:25;100902.00;;;22.38;
46015;BME280;36844;51.898;-0.874;2023-06-26T13:05:50;100901.72;;;22.32;
46015;BME280;36844;51.898;-0.874;2023-06-26T13:08:16;100897.00;;;22.36;
46015;BME280;36844;51.898;-0.874;2023-06-26T13:10:43;100910.16;;;22.38;
46015;BME280;36844;51.898;-0.874;2023-06-26T13:13:12;100908.63;;;22.37;
46015;BME280;36844;51.898;-0.874;2023-06-26T13:15:37;100893.63;;;22.29;
46015;BME280;36844;51.898;-0.874;2023-06-26T13:18:02;100914.78;;;22.37;
46015;BME280;36844;51.898;-0.874;2023-06-26T13:20:28;100902.16;;;22.31;
46015;BME280;36844;51.898;-0.874;2023-06-26T13:22:53;100900.94;;;22.32;
46015;BME280;36844;51.898;-0.874;2023-06-26T13:25:20;100915.22;;;22.36;
46015;BME280;36844;51.898;-0.874;2023-06-26T13:27:45;100904.03;;;22.34;
46015;BME280;36844;51.898;-0.874;2023-06-26T13:30:11;100919.78;;;22.42;
46015;BME280;36844;51.898;-0.874;2023-06-26T13:32:36;100913.56;;;22.42;
46015;BME280;36844;51.898;-0.874;2023-06-26T13:35:02;100913.13;;;22.43;
46015;BME280;36844;51.898;-0.874;2023-06-26T13:37:28;100902.72;;;22.42;
46015;BME280;36844;51.898;-0.874;2023-06-26T13:39:54;100915.44;;;22.45;
46015;BME280;36844;51.898;-0.874;2023-06-26T13:42:19;100878.13;;;22.29;
46015;BME280;36844;51.898;-0.874;2023-06-26T13:44:44;100900.06;;;22.38;